This is the latest recevied weather packets stored in our database for station/object SQ7RAF-15. If no packets are shown the sender has not sent any weather packets the latest 1 day(s).
| Time | Temp. | Humidity | Pressure | Rain* | Wind** | Luminosity | Snow |
|---|---|---|---|---|---|---|---|
| 1778094920 | 17.22° C | 69% | 1005.5 hPa | 0 mm | - | 0 W/m² | - |
| 1778094632 | 17.22° C | 67% | 1005.4 hPa | 0 mm | - | 0 W/m² | - |
| 1778094344 | 17.78° C | 68% | 1005.3 hPa | 0 mm | - | 0 W/m² | - |
| 1778094024 | 17.78° C | 67% | 1005.1 hPa | 0 mm | - | 0 W/m² | - |
| 1778093736 | 18.33° C | 66% | 1005.2 hPa | 0 mm | - | 0 W/m² | - |
| 1778093448 | 18.33° C | 66% | 1005.1 hPa | 0 mm | - | 0 W/m² | - |
| 1778092248 | 19.44° C | 62% | 1004.8 hPa | 0 mm | - | 0 W/m² | - |
| 1778091033 | 20° C | 60% | 1004.7 hPa | 0 mm | - | 0 W/m² | - |
| 1778090745 | 20° C | 61% | 1004.6 hPa | 0 mm | - | 0 W/m² | - |
| 1778090424 | 20.56° C | 59% | 1004.7 hPa | 0 mm | - | 1 W/m² | - |
| 1778090136 | 20.56° C | 59% | 1004.5 hPa | 0 mm | - | 3 W/m² | - |
| 1778089240 | 21.67° C | 54% | 1004.6 hPa | 0 mm | - | 12 W/m² | - |
| 1778088920 | 22.22° C | 53% | 1004.7 hPa | 0 mm | - | 18 W/m² | - |
| 1778088648 | 22.22° C | 53% | 1004.5 hPa | 0 mm | - | 27 W/m² | - |
| 1778088328 | 22.22° C | 52% | 1004.6 hPa | 0 mm | - | 33 W/m² | - |
| 1778088024 | 22.22° C | 51% | 1004.7 hPa | 0 mm | - | 28 W/m² | - |
| 1778087128 | 22.78° C | 50% | 1004.8 hPa | 0 mm | - | 38 W/m² | - |
| 1778086520 | 22.78° C | 51% | 1004.7 hPa | 0 mm | - | 49 W/m² | - |
| 1778085320 | 22.22° C | 50% | 1004.8 hPa | 0 mm | - | 67 W/m² | - |
| 1778085032 | 22.22° C | 51% | 1004.8 hPa | 0 mm | - | 66 W/m² | - |
| 1778084744 | 22.22° C | 50% | 1004.8 hPa | 0 mm | - | 63 W/m² | - |
| 1778084136 | 22.22° C | 50% | 1004.8 hPa | 0 mm | - | 53 W/m² | - |
| 1778083528 | 22.78° C | 49% | 1004.8 hPa | 0 mm | - | 50 W/m² | - |
| 1778083240 | 22.78° C | 50% | 1004.8 hPa | 0 mm | - | 43 W/m² | - |
| 1778082920 | 22.78° C | 49% | 1004.9 hPa | 0 mm | - | 40 W/m² | - |
* Rain latest hour (hover to see other rain measurements)
** Current wind speed in m/s (hover to see current wind gust speed)